createdAt,value
2018-03-24T00:01:04.381Z,97778.77
2018-03-24T00:03:34.574Z,97772.16
2018-03-24T00:06:02.970Z,97771.73
2018-03-24T00:08:33.111Z,97774.00
2018-03-24T00:11:02.363Z,97773.52
2018-03-24T00:13:31.683Z,97771.42
2018-03-24T00:16:01.062Z,97765.45
2018-03-24T00:18:29.462Z,97766.55
2018-03-24T00:20:58.359Z,97759.11
2018-03-24T00:23:28.559Z,97767.84
2018-03-24T00:25:59.502Z,97771.23
2018-03-24T00:28:28.194Z,97770.39
2018-03-24T00:30:56.550Z,97764.11
2018-03-24T00:33:26.062Z,97759.09
2018-03-24T00:35:55.830Z,97759.02
2018-03-24T00:38:26.016Z,97756.22
2018-03-24T00:40:54.445Z,97746.18
2018-03-24T00:43:24.282Z,97752.55
2018-03-24T00:45:52.683Z,97753.29
2018-03-24T00:48:22.606Z,97755.05
2018-03-24T00:50:51.800Z,97753.17
2018-03-24T00:53:20.763Z,97751.67
2018-03-24T00:55:50.098Z,97753.97
2018-03-24T00:58:19.378Z,97755.65
2018-03-24T01:00:48.631Z,97752.31
2018-03-24T01:03:17.986Z,97753.30
2018-03-24T01:05:47.186Z,97753.13
2018-03-24T01:08:16.924Z,97755.50
2018-03-24T01:10:46.067Z,97750.16
2018-03-24T01:13:15.340Z,97750.88
2018-03-24T01:15:44.116Z,97748.16
2018-03-24T01:18:13.452Z,97751.15
2018-03-24T01:20:41.900Z,97737.68
2018-03-24T01:23:11.572Z,97744.45
2018-03-24T01:25:40.043Z,97745.95
2018-03-24T01:28:08.715Z,97745.41
2018-03-24T01:30:38.015Z,97736.56
2018-03-24T01:33:07.403Z,97743.70
2018-03-24T01:35:36.626Z,97736.69
2018-03-24T01:38:05.178Z,97740.73
2018-03-24T01:40:35.252Z,97740.64
2018-03-24T01:43:05.457Z,97728.92
2018-03-24T01:45:34.864Z,97733.92
2018-03-24T01:48:03.297Z,97732.76
2018-03-24T01:50:32.458Z,97729.91
2018-03-24T01:53:00.896Z,97729.62
2018-03-24T01:55:30.728Z,97724.42
2018-03-24T01:57:59.147Z,97729.08
2018-03-24T02:00:30.179Z,97726.77
2018-03-24T02:02:58.614Z,97725.63
2018-03-24T02:05:29.739Z,97724.20
2018-03-24T02:07:58.151Z,97717.66
2018-03-24T02:10:27.630Z,97718.19
2018-03-24T02:12:57.459Z,97721.66
2018-03-24T02:15:27.562Z,97711.91
2018-03-24T02:17:57.310Z,97717.62
2018-03-24T02:20:27.687Z,97712.95
2018-03-24T02:22:56.815Z,97715.63
2018-03-24T02:25:28.430Z,97711.52
2018-03-24T02:27:59.380Z,97712.22
2018-03-24T02:30:28.515Z,97713.38
2018-03-24T02:32:58.390Z,97710.53
2018-03-24T02:35:26.788Z,97707.75
2018-03-24T02:37:57.604Z,97713.12
2018-03-24T02:40:26.500Z,97700.16
2018-03-24T02:42:55.795Z,97696.80
2018-03-24T02:45:24.179Z,97703.09
2018-03-24T02:47:52.589Z,97695.53
2018-03-24T02:50:20.931Z,97695.44
2018-03-24T02:52:50.473Z,97694.80
2018-03-24T02:55:18.805Z,97696.69
2018-03-24T02:57:48.563Z,97705.69
2018-03-24T03:00:17.959Z,97712.08
2018-03-24T03:02:47.893Z,97712.64
2018-03-24T03:05:17.124Z,97711.53
2018-03-24T03:07:46.597Z,97712.59
2018-03-24T03:10:15.849Z,97712.91
2018-03-24T03:12:45.055Z,97712.70
2018-03-24T03:15:13.649Z,97713.64
2018-03-24T03:17:42.885Z,97709.57
2018-03-24T03:20:11.249Z,97711.53
2018-03-24T03:22:40.733Z,97704.95
2018-03-24T03:25:09.083Z,97699.98
2018-03-24T03:27:37.905Z,97702.39
2018-03-24T03:33:14.615Z,97704.95
2018-03-24T03:35:43.000Z,97698.91
2018-03-24T03:38:11.442Z,97703.36
2018-03-24T03:40:41.934Z,97698.48
2018-03-24T03:43:11.263Z,97707.77
2018-03-24T03:45:41.366Z,97709.57
2018-03-24T03:48:10.502Z,97709.09
2018-03-24T03:50:38.853Z,97704.69
2018-03-24T03:53:07.258Z,97704.52
2018-03-24T03:55:37.035Z,97701.08
2018-03-24T03:58:05.641Z,97701.81
2018-03-24T04:00:34.902Z,97699.27
2018-03-24T04:03:05.071Z,97691.62
2018-03-24T04:05:35.217Z,97695.09
2018-03-24T04:08:04.363Z,97698.25
2018-03-24T04:10:32.746Z,97696.99
2018-03-24T04:13:01.112Z,97691.95
2018-03-24T04:15:29.743Z,97693.82
2018-03-24T04:17:58.563Z,97690.33
2018-03-24T04:20:27.723Z,97689.89
2018-03-24T04:22:56.091Z,97683.52
2018-03-24T04:25:24.772Z,97679.97
2018-03-24T04:27:53.159Z,97682.31
2018-03-24T04:30:22.561Z,97681.95
2018-03-24T04:32:51.782Z,97683.16
2018-03-24T04:35:21.013Z,97678.16
2018-03-24T04:37:50.311Z,97675.09
2018-03-24T04:40:19.399Z,97680.13
2018-03-24T04:42:48.507Z,97686.88
2018-03-24T04:45:16.934Z,97675.22
2018-03-24T04:47:46.294Z,97670.03
2018-03-24T04:50:16.929Z,97665.38
2018-03-24T04:52:45.324Z,97674.25
2018-03-24T04:55:15.464Z,97670.80
2018-03-24T04:57:44.841Z,97670.19
2018-03-24T05:00:13.347Z,97674.30
2018-03-24T05:02:41.692Z,97667.27
2018-03-24T05:05:10.355Z,97670.18
2018-03-24T05:07:39.880Z,97680.70
2018-03-24T05:10:08.298Z,97681.25
2018-03-24T05:12:37.483Z,97671.63
2018-03-24T05:15:06.555Z,97676.47
2018-03-24T05:17:35.167Z,97675.84
2018-03-24T05:20:03.962Z,97677.13
2018-03-24T05:22:33.326Z,97686.16
2018-03-24T05:25:02.008Z,97689.08
2018-03-24T05:27:32.434Z,97694.23
2018-03-24T05:30:01.215Z,97685.94
2018-03-24T05:32:29.555Z,97689.53
2018-03-24T05:34:57.976Z,97696.67
2018-03-24T05:37:28.514Z,97696.72
2018-03-24T05:39:57.179Z,97698.27
2018-03-24T05:42:27.221Z,97699.57
2018-03-24T05:44:55.639Z,97706.37
2018-03-24T05:47:26.760Z,97703.30
2018-03-24T05:49:56.403Z,97712.49
2018-03-24T05:52:24.747Z,97712.78
2018-03-24T05:54:53.733Z,97713.29
2018-03-24T05:57:22.360Z,97710.67
2018-03-24T05:59:51.020Z,97711.27
2018-03-24T06:02:19.673Z,97707.97
2018-03-24T06:04:49.502Z,97707.65
2018-03-24T06:07:18.767Z,97710.30
2018-03-24T06:09:47.412Z,97716.33
2018-03-24T06:12:16.081Z,97713.80
2018-03-24T06:14:45.022Z,97716.09
2018-03-24T06:17:13.761Z,97713.29
2018-03-24T06:19:44.888Z,97716.97
2018-03-24T06:22:13.324Z,97721.69
2018-03-24T06:24:42.074Z,97717.41
2018-03-24T06:27:10.751Z,97724.91
2018-03-24T06:29:40.777Z,97728.55
2018-03-24T06:32:09.872Z,97726.12
2018-03-24T06:34:39.251Z,97719.02
2018-03-24T06:37:09.396Z,97719.50
2018-03-24T06:39:38.787Z,97716.60
2018-03-24T06:42:07.202Z,97718.70
2018-03-24T06:44:36.706Z,97722.89
2018-03-24T06:47:05.092Z,97722.14
2018-03-24T06:49:34.760Z,97722.24
2018-03-24T06:52:03.889Z,97725.23
2018-03-24T06:54:32.946Z,97727.84
2018-03-24T06:57:02.258Z,97720.67
2018-03-24T06:59:30.684Z,97724.41
2018-03-24T07:01:59.973Z,97721.00
2018-03-24T07:04:28.387Z,97724.86
2018-03-24T07:06:57.828Z,97729.63
2018-03-24T07:09:27.008Z,97726.70
2018-03-24T07:11:55.379Z,97732.25
2018-03-24T07:14:24.072Z,97729.73
2018-03-24T07:16:53.317Z,97734.64
2018-03-24T07:19:22.462Z,97736.92
2018-03-24T07:21:52.088Z,97738.31
2018-03-24T07:24:21.069Z,97735.34
2018-03-24T07:26:49.607Z,97737.47
2018-03-24T07:29:18.455Z,97738.13
2018-03-24T07:31:49.893Z,97742.36
2018-03-24T07:34:19.205Z,97740.78
2018-03-24T07:36:49.106Z,97747.88
2018-03-24T07:39:18.838Z,97746.50
2018-03-24T07:41:47.180Z,97749.84
2018-03-24T07:44:15.570Z,97752.25
2018-03-24T07:46:44.561Z,97752.80
2018-03-24T07:49:12.934Z,97756.62
2018-03-24T07:51:42.206Z,97751.34
2018-03-24T07:54:11.183Z,97756.04
2018-03-24T07:56:40.276Z,97749.97
2018-03-24T07:59:09.411Z,97745.87
2018-03-24T08:01:38.575Z,97754.34
2018-03-24T08:04:07.943Z,97758.33
2018-03-24T08:06:36.363Z,97755.97
2018-03-24T08:09:05.572Z,97762.77
2018-03-24T08:11:34.810Z,97759.23
2018-03-24T08:14:05.008Z,97763.07
2018-03-24T08:16:33.959Z,97766.21
2018-03-24T08:19:04.218Z,97771.02
2018-03-24T08:21:33.911Z,97768.91
2018-03-24T08:24:02.311Z,97763.31
2018-03-24T08:26:32.910Z,97771.61
2018-03-24T08:29:01.648Z,97771.17
2018-03-24T08:31:30.129Z,97768.23
2018-03-24T08:33:58.530Z,97766.94
2018-03-24T08:36:27.760Z,97766.92
2018-03-24T08:38:58.555Z,97763.75
2018-03-24T08:41:27.465Z,97770.87
2018-03-24T08:43:58.119Z,97764.94
2018-03-24T08:46:26.533Z,97766.50
2018-03-24T08:48:55.993Z,97771.16
2018-03-24T08:51:24.327Z,97765.72
2018-03-24T08:53:52.948Z,97766.69
2018-03-24T08:56:21.317Z,97769.69
2018-03-24T08:58:51.135Z,97766.86
2018-03-24T09:01:19.669Z,97761.66
2018-03-24T09:03:49.299Z,97771.08
2018-03-24T09:06:17.957Z,97768.48
2018-03-24T09:08:48.804Z,97766.73
2018-03-24T09:11:17.234Z,97778.44
2018-03-24T09:13:45.563Z,97777.77
2018-03-24T09:16:14.800Z,97772.62
2018-03-24T09:18:44.072Z,97770.14
2018-03-24T09:21:13.138Z,97772.23
2018-03-24T09:23:42.286Z,97766.25
2018-03-24T09:26:11.743Z,97770.83
2018-03-24T09:28:40.980Z,97772.08
2018-03-24T09:31:09.379Z,97765.25
2018-03-24T09:33:38.531Z,97767.09
2018-03-24T09:36:06.957Z,97766.36
2018-03-24T09:38:36.731Z,97767.28
2018-03-24T09:41:05.195Z,97770.86
2018-03-24T09:43:33.528Z,97764.61
2018-03-24T09:46:01.901Z,97768.14
2018-03-24T09:48:30.228Z,97766.78
2018-03-24T09:50:59.886Z,97777.23
2018-03-24T09:53:28.473Z,97775.84
2018-03-24T09:55:58.315Z,97774.36
2018-03-24T09:58:29.405Z,97776.84
2018-03-24T10:00:59.585Z,97776.39
2018-03-24T10:03:28.004Z,97780.91
2018-03-24T10:05:56.406Z,97782.13
2018-03-24T10:08:26.394Z,97773.34
2018-03-24T10:10:56.260Z,97773.56
2018-03-24T10:13:25.938Z,97777.81
2018-03-24T10:15:54.604Z,97771.23
2018-03-24T10:18:22.982Z,97772.21
2018-03-24T10:24:23.611Z,97769.30
2018-03-24T10:26:52.540Z,97768.91
2018-03-24T10:29:21.623Z,97768.79
2018-03-24T10:31:52.425Z,97765.02
2018-03-24T10:34:21.967Z,97763.41
2018-03-24T10:36:52.546Z,97764.23
2018-03-24T10:39:21.111Z,97765.31
2018-03-24T10:41:50.383Z,97766.25
2018-03-24T10:44:19.647Z,97762.98
2018-03-24T10:46:48.765Z,97763.41
2018-03-24T10:49:17.512Z,97766.21
2018-03-24T10:51:46.723Z,97771.55
2018-03-24T10:54:16.003Z,97770.98
2018-03-24T10:56:44.964Z,97768.22
2018-03-24T10:59:16.415Z,97771.22
2018-03-24T11:01:45.614Z,97774.13
2018-03-24T11:04:15.393Z,97768.10
2018-03-24T11:06:43.816Z,97767.95
2018-03-24T11:09:13.115Z,97769.60
2018-03-24T11:11:41.473Z,97765.08
2018-03-24T11:14:10.503Z,97764.94
2018-03-24T11:16:40.924Z,97764.20
2018-03-24T11:19:09.303Z,97764.54
2018-03-24T11:21:37.678Z,97762.45
2018-03-24T11:24:06.687Z,97766.52
2018-03-24T11:26:36.021Z,97761.95
2018-03-24T11:29:05.704Z,97771.02
2018-03-24T11:31:34.592Z,97760.87
2018-03-24T11:34:06.249Z,97761.52
2018-03-24T11:36:36.020Z,97763.55
2018-03-24T11:39:08.159Z,97762.48
2018-03-24T11:41:39.056Z,97757.97
2018-03-24T11:44:07.405Z,97765.10
2018-03-24T11:46:35.817Z,97764.11
2018-03-24T11:49:04.942Z,97755.05
2018-03-24T11:51:34.083Z,97754.52
2018-03-24T11:54:03.211Z,97759.34
2018-03-24T11:56:36.277Z,97754.14
2018-03-24T11:59:06.383Z,97759.66
2018-03-24T12:01:35.108Z,97755.81
2018-03-24T12:04:03.555Z,97758.41
2018-03-24T12:06:31.975Z,97752.22
2018-03-24T12:09:01.166Z,97752.26
2018-03-24T12:11:31.183Z,97755.22
2018-03-24T12:13:59.891Z,97752.40
2018-03-24T12:16:30.022Z,97748.14
2018-03-24T12:18:59.220Z,97745.90
2018-03-24T12:21:27.583Z,97739.95
2018-03-24T12:23:55.972Z,97738.64
2018-03-24T12:26:28.205Z,97732.91
2018-03-24T12:28:57.326Z,97732.20
2018-03-24T12:31:26.432Z,97732.27
2018-03-24T12:33:59.437Z,97734.41
2018-03-24T12:36:28.668Z,97730.23
2018-03-24T12:38:58.491Z,97735.98
2018-03-24T12:41:28.418Z,97737.06
2018-03-24T12:43:57.498Z,97738.83
2018-03-24T12:46:25.867Z,97726.91
2018-03-24T12:48:54.845Z,97730.92
2018-03-24T12:51:24.143Z,97732.65
2018-03-24T12:53:52.442Z,97734.73
2018-03-24T12:56:21.216Z,97733.10
2018-03-24T12:58:50.488Z,97727.53
2018-03-24T13:01:18.883Z,97726.23
2018-03-24T13:03:47.234Z,97725.02
2018-03-24T13:06:15.655Z,97723.55
2018-03-24T13:08:43.993Z,97726.14
2018-03-24T13:11:12.841Z,97721.27
2018-03-24T13:13:41.317Z,97717.83
2018-03-24T13:16:10.002Z,97715.65
2018-03-24T13:18:38.341Z,97721.36
2018-03-24T13:21:07.583Z,97715.94
2018-03-24T13:23:36.059Z,97721.71
2018-03-24T13:26:04.440Z,97717.42
2018-03-24T13:28:33.019Z,97720.80
2018-03-24T13:31:01.444Z,97716.53
2018-03-24T13:33:29.780Z,97715.14
2018-03-24T13:35:58.939Z,97722.63
2018-03-24T13:38:29.531Z,97722.56
2018-03-24T13:40:57.884Z,97719.20
2018-03-24T13:43:26.554Z,97721.78
2018-03-24T13:45:55.580Z,97717.55
2018-03-24T13:48:24.146Z,97717.55
2018-03-24T13:50:53.222Z,97708.91
2018-03-24T13:53:21.583Z,97705.86
2018-03-24T13:55:49.946Z,97701.78
2018-03-24T13:58:18.365Z,97702.75
2018-03-24T14:00:48.561Z,97705.22
2018-03-24T14:03:16.914Z,97703.63
2018-03-24T14:05:45.242Z,97703.30
2018-03-24T14:08:13.673Z,97701.47
2018-03-24T14:10:45.100Z,97699.08
2018-03-24T14:13:14.610Z,97706.69
2018-03-24T14:15:43.724Z,97693.41
2018-03-24T14:18:13.055Z,97691.72
2018-03-24T14:20:41.761Z,97688.32
2018-03-24T14:23:12.946Z,97685.56
2018-03-24T14:25:41.277Z,97683.42
2018-03-24T14:28:12.688Z,97688.27
2018-03-24T14:30:41.947Z,97683.02
2018-03-24T14:33:10.320Z,97688.57
2018-03-24T14:35:38.663Z,97682.47
2018-03-24T14:38:07.956Z,97677.53
2018-03-24T14:40:36.392Z,97682.33
2018-03-24T14:43:04.764Z,97686.91
2018-03-24T14:45:33.099Z,97682.45
2018-03-24T14:48:02.520Z,97675.59
2018-03-24T14:50:31.446Z,97676.97
2018-03-24T14:52:59.846Z,97674.70
2018-03-24T14:55:28.190Z,97671.66
2018-03-24T14:57:57.531Z,97675.89
2018-03-24T15:00:26.255Z,97673.58
2018-03-24T15:02:54.726Z,97672.14
2018-03-24T15:05:23.144Z,97673.05
2018-03-24T15:07:52.400Z,97671.05
2018-03-24T15:10:21.278Z,97671.41
2018-03-24T15:12:49.688Z,97669.11
2018-03-24T15:15:18.954Z,97665.09
2018-03-24T15:17:47.352Z,97664.77
2018-03-24T15:20:15.687Z,97661.64
2018-03-24T15:22:44.132Z,97660.44
2018-03-24T15:25:14.110Z,97667.24
2018-03-24T15:27:42.849Z,97670.00
2018-03-24T15:30:24.520Z,97668.78
2018-03-24T15:32:53.841Z,97672.83
2018-03-24T15:35:32.393Z,97672.94
2018-03-24T15:38:01.316Z,97672.41
2018-03-24T15:40:31.484Z,97670.69
2018-03-24T15:42:59.867Z,97661.72
2018-03-24T15:45:28.378Z,97668.33
2018-03-24T15:47:56.791Z,97667.02
2018-03-24T15:50:25.164Z,97677.05
2018-03-24T15:52:53.616Z,97675.08
2018-03-24T15:55:22.273Z,97679.86
2018-03-24T15:57:51.520Z,97674.27
2018-03-24T16:00:19.858Z,97679.02
2018-03-24T16:02:48.228Z,97669.04
2018-03-24T16:05:16.587Z,97676.25
2018-03-24T16:07:45.265Z,97674.98
2018-03-24T16:10:14.385Z,97674.03
2018-03-24T16:12:46.599Z,97673.25
2018-03-24T16:15:16.506Z,97674.47
2018-03-24T16:17:44.841Z,97674.27
2018-03-24T16:20:13.176Z,97681.22
2018-03-24T16:22:41.556Z,97676.82
2018-03-24T16:25:10.178Z,97680.19
2018-03-24T16:27:39.468Z,97681.14
2018-03-24T16:30:07.831Z,97679.42
2018-03-24T16:32:36.199Z,97677.14
2018-03-24T16:35:07.311Z,97676.36
2018-03-24T16:37:36.423Z,97675.58
2018-03-24T16:40:05.488Z,97677.27
2018-03-24T16:42:34.026Z,97675.60
2018-03-24T16:45:02.742Z,97672.00
2018-03-24T16:47:31.152Z,97668.41
2018-03-24T16:49:59.777Z,97676.22
2018-03-24T16:52:28.196Z,97673.22
2018-03-24T16:54:56.617Z,97680.14
2018-03-24T16:57:26.297Z,97679.96
2018-03-24T16:59:54.720Z,97681.20
2018-03-24T17:02:25.175Z,97686.30
2018-03-24T17:04:53.550Z,97689.33
2018-03-24T17:07:23.227Z,97687.01
2018-03-24T17:09:51.569Z,97688.06
2018-03-24T17:12:20.387Z,97693.97
2018-03-24T17:14:51.335Z,97696.66
2018-03-24T17:17:24.013Z,97704.11
2018-03-24T17:19:52.348Z,97704.78
2018-03-24T17:22:21.247Z,97704.25
2018-03-24T17:24:49.586Z,97712.02
2018-03-24T17:27:18.912Z,97713.66
2018-03-24T17:29:51.016Z,97714.80
2018-03-24T17:32:19.391Z,97719.09
2018-03-24T17:34:48.016Z,97715.27
2018-03-24T17:37:17.457Z,97721.80
2018-03-24T17:39:46.982Z,97718.73
2018-03-24T17:42:16.156Z,97715.95
2018-03-24T17:44:45.544Z,97722.47
2018-03-24T17:47:14.150Z,97720.59
2018-03-24T17:49:42.562Z,97715.33
2018-03-24T17:52:11.740Z,97720.64
2018-03-24T17:54:40.792Z,97713.73
2018-03-24T17:57:09.135Z,97727.28
2018-03-24T17:59:37.536Z,97718.90
2018-03-24T18:02:06.561Z,97719.18
2018-03-24T18:04:35.674Z,97722.58
2018-03-24T18:07:04.474Z,97725.45
2018-03-24T18:09:32.923Z,97734.45
2018-03-24T18:12:02.327Z,97733.82
2018-03-24T18:14:32.033Z,97736.00
2018-03-24T18:17:00.927Z,97738.30
2018-03-24T18:19:30.496Z,97741.55
2018-03-24T18:21:58.809Z,97747.06
2018-03-24T18:24:28.043Z,97746.56
2018-03-24T18:26:57.538Z,97752.28
2018-03-24T18:29:27.449Z,97747.25
2018-03-24T18:31:56.582Z,97757.27
2018-03-24T18:34:25.246Z,97758.53
2018-03-24T18:36:55.324Z,97751.64
2018-03-24T18:39:24.559Z,97751.64
2018-03-24T18:41:53.860Z,97757.69
2018-03-24T18:44:23.237Z,97763.22
2018-03-24T18:46:52.550Z,97763.82
2018-03-24T18:49:21.185Z,97765.80
2018-03-24T18:51:49.521Z,97765.66
2018-03-24T18:54:18.292Z,97772.47
2018-03-24T18:56:48.153Z,97772.66
2018-03-24T18:59:17.544Z,97768.77
2018-03-24T19:01:47.634Z,97767.53
2018-03-24T19:04:16.072Z,97766.33
2018-03-24T19:06:44.458Z,97775.97
2018-03-24T19:09:13.633Z,97772.38
2018-03-24T19:11:42.775Z,97779.68
2018-03-24T19:14:11.840Z,97786.52
2018-03-24T19:16:40.551Z,97784.36
2018-03-24T19:19:09.707Z,97789.61
2018-03-24T19:21:38.081Z,97790.19
2018-03-24T19:24:06.815Z,97793.98
2018-03-24T19:26:35.167Z,97788.83
2018-03-24T19:29:03.650Z,97790.51
2018-03-24T19:31:32.441Z,97789.19
2018-03-24T19:34:00.779Z,97796.13
2018-03-24T19:36:29.198Z,97794.28
2018-03-24T19:38:58.487Z,97798.77
2018-03-24T19:41:26.955Z,97795.74
2018-03-24T19:43:55.310Z,97804.41
2018-03-24T19:46:23.722Z,97800.56
2018-03-24T19:48:53.002Z,97803.58
2018-03-24T19:51:22.098Z,97801.58
2018-03-24T19:53:51.388Z,97809.05
2018-03-24T19:56:21.525Z,97810.66
2018-03-24T19:58:49.901Z,97817.59
2018-03-24T20:01:22.085Z,97807.41
2018-03-24T20:03:52.357Z,97810.94
2018-03-24T20:06:20.735Z,97807.79
2018-03-24T20:08:49.464Z,97810.88
2018-03-24T20:11:17.808Z,97816.73
2018-03-24T20:13:46.227Z,97818.21
2018-03-24T20:16:14.560Z,97818.10
2018-03-24T20:18:43.086Z,97823.12
2018-03-24T20:21:13.826Z,97816.01
2018-03-24T20:23:43.366Z,97814.82
2018-03-24T20:26:11.727Z,97817.22
2018-03-24T20:28:41.596Z,97816.02
2018-03-24T20:31:09.939Z,97820.25
2018-03-24T20:33:38.806Z,97822.83
2018-03-24T20:36:07.139Z,97828.19
2018-03-24T20:38:35.561Z,97833.45
2018-03-24T20:41:04.944Z,97837.37
2018-03-24T20:43:33.319Z,97827.48
2018-03-24T20:46:01.768Z,97836.56
2018-03-24T20:48:30.334Z,97832.02
2018-03-24T20:50:59.343Z,97833.69
2018-03-24T20:53:27.711Z,97831.02
2018-03-24T20:55:57.046Z,97828.12
2018-03-24T20:58:25.655Z,97830.78
2018-03-24T21:00:55.536Z,97831.70
2018-03-24T21:03:25.506Z,97831.97
2018-03-24T21:05:55.574Z,97836.84
2018-03-24T21:08:24.017Z,97832.55
2018-03-24T21:10:52.904Z,97838.89
2018-03-24T21:13:22.164Z,97840.31
2018-03-24T21:15:50.513Z,97846.93
2018-03-24T21:18:20.249Z,97844.23
2018-03-24T21:20:49.535Z,97846.35
2018-03-24T21:23:18.810Z,97849.01
2018-03-24T21:25:47.407Z,97849.56
2018-03-24T21:28:15.753Z,97857.33
2018-03-24T21:30:44.166Z,97860.98
2018-03-24T21:33:13.352Z,97858.25
2018-03-24T21:35:41.712Z,97862.63
2018-03-24T21:38:10.781Z,97855.45
2018-03-24T21:40:39.437Z,97855.55
2018-03-24T21:43:07.766Z,97848.66
2018-03-24T21:45:36.575Z,97848.30
2018-03-24T21:48:04.907Z,97853.14
2018-03-24T21:50:33.293Z,97854.83
2018-03-24T21:53:01.616Z,97859.39
2018-03-24T21:55:30.900Z,97860.20
2018-03-24T21:58:01.292Z,97858.27
2018-03-24T22:00:31.203Z,97855.00
2018-03-24T22:03:00.526Z,97851.76
2018-03-24T22:05:30.659Z,97848.66
2018-03-24T22:07:58.989Z,97848.86
2018-03-24T22:10:27.723Z,97853.94
2018-03-24T22:12:56.099Z,97848.50
2018-03-24T22:15:24.708Z,97855.69
2018-03-24T22:17:53.900Z,97850.70
2018-03-24T22:20:23.501Z,97857.16
2018-03-24T22:22:56.451Z,97861.14
2018-03-24T22:25:25.526Z,97858.20
2018-03-24T22:27:54.766Z,97855.20
2018-03-24T22:30:23.538Z,97854.21
2018-03-24T22:32:53.631Z,97858.03
2018-03-24T22:35:22.669Z,97860.39
2018-03-24T22:37:52.405Z,97855.10
2018-03-24T22:40:22.186Z,97852.99
2018-03-24T22:42:50.516Z,97846.21
2018-03-24T22:45:18.987Z,97849.26
2018-03-24T22:47:48.589Z,97850.95
2018-03-24T22:50:16.943Z,97851.31
2018-03-24T22:52:46.139Z,97851.87
2018-03-24T22:55:14.515Z,97850.30
2018-03-24T22:57:42.849Z,97853.25
2018-03-24T23:00:12.448Z,97850.20
2018-03-24T23:02:41.784Z,97846.67
2018-03-24T23:05:11.028Z,97853.64
2018-03-24T23:07:40.066Z,97850.14
2018-03-24T23:10:10.141Z,97859.65
2018-03-24T23:12:39.085Z,97859.59
2018-03-24T23:15:07.466Z,97862.45
2018-03-24T23:17:35.878Z,97860.03
2018-03-24T23:20:04.292Z,97859.55
2018-03-24T23:22:32.645Z,97866.41
2018-03-24T23:25:02.821Z,97865.37
2018-03-24T23:27:32.627Z,97862.16
2018-03-24T23:30:00.959Z,97865.67
2018-03-24T23:32:30.231Z,97871.72
2018-03-24T23:34:58.559Z,97872.03
2018-03-24T23:37:27.013Z,97869.45
2018-03-24T23:39:56.721Z,97873.02
2018-03-24T23:42:27.359Z,97874.16
2018-03-24T23:44:56.511Z,97872.78
2018-03-24T23:47:24.911Z,97875.63
2018-03-24T23:49:54.178Z,97876.34
2018-03-24T23:52:23.426Z,97876.45
2018-03-24T23:54:52.171Z,97876.41
2018-03-24T23:57:20.553Z,97879.53
2018-03-24T23:59:48.879Z,97874.58
